createdAt,value
2019-06-15T00:00:24.379Z,23.20
2019-06-15T00:02:51.919Z,23.20
2019-06-15T00:05:19.426Z,23.20
2019-06-15T00:07:46.888Z,23.20
2019-06-15T00:10:14.387Z,23.20
2019-06-15T00:12:41.867Z,23.20
2019-06-15T00:15:09.411Z,23.20
2019-06-15T00:17:37.055Z,23.20
2019-06-15T00:20:04.877Z,23.20
2019-06-15T00:22:32.529Z,23.20
2019-06-15T00:25:00.077Z,23.20
2019-06-15T00:27:27.570Z,23.20
2019-06-15T00:29:55.057Z,23.20
2019-06-15T00:32:22.541Z,23.20
2019-06-15T00:34:50.099Z,23.20
2019-06-15T00:37:17.621Z,23.20
2019-06-15T00:39:45.100Z,23.20
2019-06-15T00:42:12.607Z,23.20
2019-06-15T00:44:40.101Z,23.20
2019-06-15T00:47:07.581Z,23.20
2019-06-15T00:49:35.323Z,23.10
2019-06-15T00:52:02.807Z,23.20
2019-06-15T00:54:30.292Z,23.20
2019-06-15T00:56:57.836Z,23.20
2019-06-15T00:59:25.316Z,23.10
2019-06-15T01:01:52.787Z,23.20
2019-06-15T01:04:20.261Z,23.10
2019-06-15T01:06:47.755Z,23.20
2019-06-15T01:09:15.226Z,23.20
2019-06-15T01:11:42.713Z,23.20
2019-06-15T01:14:10.196Z,23.20
2019-06-15T01:16:37.679Z,23.20
2019-06-15T01:19:05.451Z,23.20
2019-06-15T01:21:32.936Z,23.20
2019-06-15T01:24:00.419Z,23.10
2019-06-15T01:26:27.899Z,23.20
2019-06-15T01:28:55.403Z,23.20
2019-06-15T01:31:22.897Z,23.10
2019-06-15T01:33:50.392Z,23.20
2019-06-15T01:36:17.875Z,23.20
2019-06-15T01:38:45.354Z,23.20
2019-06-15T01:41:12.834Z,23.20
2019-06-15T01:43:40.354Z,23.10
2019-06-15T01:46:07.851Z,23.20
2019-06-15T01:48:35.328Z,23.20
2019-06-15T01:51:02.829Z,23.20
2019-06-15T01:53:30.324Z,23.20
2019-06-15T01:55:57.831Z,23.20
2019-06-15T01:58:25.380Z,23.10
2019-06-15T02:00:52.875Z,23.10
2019-06-15T02:03:20.377Z,23.10
2019-06-15T02:05:47.865Z,23.10
2019-06-15T02:08:15.339Z,23.10
2019-06-15T02:10:42.831Z,23.20
2019-06-15T02:13:10.413Z,23.20
2019-06-15T02:15:37.944Z,23.20
2019-06-15T02:18:05.504Z,23.20
2019-06-15T02:20:33.023Z,23.10
2019-06-15T02:23:00.517Z,23.10
2019-06-15T02:25:35.926Z,23.10
2019-06-15T02:27:57.763Z,23.20
2019-06-15T02:30:26.575Z,23.10
2019-06-15T02:32:54.642Z,23.10
2019-06-15T02:35:22.119Z,23.20
2019-06-15T02:37:49.610Z,23.10
2019-06-15T02:40:17.097Z,23.10
2019-06-15T02:42:44.652Z,23.20
2019-06-15T02:45:12.118Z,23.20
2019-06-15T02:47:39.619Z,23.10
2019-06-15T02:50:07.403Z,23.20
2019-06-15T02:52:34.900Z,23.20
2019-06-15T02:55:02.391Z,23.10
2019-06-15T02:57:29.901Z,23.10
2019-06-15T02:59:57.425Z,23.20
2019-06-15T03:02:24.897Z,23.10
2019-06-15T03:04:52.410Z,23.10
2019-06-15T03:07:19.903Z,23.10
2019-06-15T03:09:47.392Z,23.10
2019-06-15T03:12:14.870Z,23.10
2019-06-15T03:14:42.383Z,23.10
2019-06-15T03:17:09.867Z,23.10
2019-06-15T03:19:37.530Z,23.10
2019-06-15T03:22:06.591Z,23.20
2019-06-15T03:24:34.221Z,23.20
2019-06-15T03:27:01.730Z,23.10
2019-06-15T03:29:29.292Z,23.20
2019-06-15T03:31:56.865Z,23.20
2019-06-15T03:34:24.419Z,23.20
2019-06-15T03:36:51.944Z,23.10
2019-06-15T03:39:19.640Z,23.10
2019-06-15T03:41:47.199Z,23.10
2019-06-15T03:44:14.739Z,23.20
2019-06-15T03:46:42.293Z,23.10
2019-06-15T03:49:09.824Z,23.10
2019-06-15T03:51:37.307Z,23.10
2019-06-15T03:54:04.800Z,23.10
2019-06-15T03:56:32.261Z,23.10
2019-06-15T03:58:59.763Z,23.10
2019-06-15T04:01:28.971Z,23.20
2019-06-15T04:03:56.473Z,23.10
2019-06-15T04:06:23.952Z,23.10
2019-06-15T04:08:51.455Z,23.10
2019-06-15T04:11:18.952Z,23.10
2019-06-15T04:13:46.526Z,23.10
2019-06-15T04:16:14.032Z,23.10
2019-06-15T04:18:41.528Z,23.10
2019-06-15T04:21:09.018Z,23.10
2019-06-15T04:23:36.497Z,23.10
2019-06-15T04:26:04.014Z,23.10
2019-06-15T04:28:31.573Z,23.10
2019-06-15T04:30:59.056Z,23.10
2019-06-15T04:33:26.539Z,23.10
2019-06-15T04:35:54.010Z,23.10
2019-06-15T04:38:21.496Z,23.10
2019-06-15T04:40:49.274Z,23.10
2019-06-15T04:43:16.767Z,23.10
2019-06-15T04:45:44.298Z,23.10
2019-06-15T04:48:11.813Z,23.10
2019-06-15T04:50:39.286Z,23.00
2019-06-15T04:53:06.791Z,23.10
2019-06-15T04:55:34.267Z,23.00
2019-06-15T04:58:01.751Z,23.10
2019-06-15T05:00:29.388Z,23.00
2019-06-15T05:02:57.026Z,23.00
2019-06-15T05:05:24.538Z,23.00
2019-06-15T05:07:52.030Z,23.00
2019-06-15T05:10:19.485Z,22.90
2019-06-15T05:12:46.962Z,22.90
2019-06-15T05:15:14.462Z,22.90
2019-06-15T05:17:41.996Z,22.90
2019-06-15T05:20:28.915Z,22.90
2019-06-15T05:22:56.380Z,22.90
2019-06-15T05:25:23.858Z,22.90
2019-06-15T05:27:51.529Z,22.90
2019-06-15T05:30:18.973Z,22.90
2019-06-15T05:32:46.488Z,22.90
2019-06-15T05:35:13.949Z,23.00
2019-06-15T05:37:41.432Z,22.90
2019-06-15T05:40:08.910Z,23.00
2019-06-15T05:42:38.006Z,23.00
2019-06-15T05:45:07.308Z,23.00
2019-06-15T05:47:34.767Z,23.00
2019-06-15T05:50:02.245Z,23.00
2019-06-15T05:52:29.703Z,23.00
2019-06-15T05:54:57.169Z,23.00
2019-06-15T05:57:24.635Z,23.00
2019-06-15T05:59:52.122Z,23.00
2019-06-15T06:02:21.700Z,23.00
2019-06-15T06:04:48.783Z,23.00
2019-06-15T06:07:16.276Z,23.00
2019-06-15T06:09:43.759Z,23.00
2019-06-15T06:12:11.295Z,23.00
2019-06-15T06:14:38.769Z,23.00
2019-06-15T06:17:06.251Z,23.00
2019-06-15T06:19:33.724Z,23.10
2019-06-15T06:22:01.181Z,23.00
2019-06-15T06:24:28.654Z,23.00
2019-06-15T06:26:56.216Z,23.00
2019-06-15T06:29:23.785Z,23.00
2019-06-15T06:31:51.301Z,23.00
2019-06-15T06:34:18.823Z,23.00
2019-06-15T06:36:46.294Z,23.10
2019-06-15T06:39:13.766Z,23.00
2019-06-15T06:41:41.261Z,23.10
2019-06-15T06:44:08.797Z,23.10
2019-06-15T06:46:36.305Z,23.10
2019-06-15T06:49:03.912Z,23.10
2019-06-15T06:51:34.283Z,23.00
2019-06-15T06:54:01.753Z,23.10
2019-06-15T06:56:29.225Z,23.10
2019-06-15T06:58:56.695Z,23.10
2019-06-15T07:01:24.163Z,23.10
2019-06-15T07:03:51.665Z,23.10
2019-06-15T07:06:19.376Z,23.10
2019-06-15T07:08:48.087Z,23.10
2019-06-15T07:11:15.595Z,23.10
2019-06-15T07:13:43.064Z,23.10
2019-06-15T07:16:10.758Z,23.10
2019-06-15T07:18:38.212Z,23.10
2019-06-15T07:21:05.677Z,23.10
2019-06-15T07:23:33.154Z,23.10
2019-06-15T07:26:00.622Z,23.10
2019-06-15T07:28:28.227Z,23.10
2019-06-15T07:30:55.701Z,23.10
2019-06-15T07:33:23.170Z,23.10
2019-06-15T07:35:50.651Z,23.10
2019-06-15T07:38:18.122Z,23.10
2019-06-15T07:40:45.598Z,23.10
2019-06-15T07:43:13.080Z,23.10
2019-06-15T07:45:40.557Z,23.10
2019-06-15T07:48:08.051Z,23.10
2019-06-15T07:50:35.570Z,23.10
2019-06-15T07:53:03.037Z,23.10
2019-06-15T07:55:30.532Z,23.10
2019-06-15T07:57:57.998Z,23.10
2019-06-15T08:00:25.463Z,23.10
2019-06-15T08:02:53.369Z,23.10
2019-06-15T08:05:20.927Z,23.10
2019-06-15T08:07:48.430Z,23.10
2019-06-15T08:10:15.899Z,23.00
2019-06-15T08:12:43.639Z,23.10
2019-06-15T08:15:11.180Z,23.10
2019-06-15T08:17:38.652Z,23.10
2019-06-15T08:20:07.900Z,23.10
2019-06-15T08:22:35.370Z,23.10
2019-06-15T08:25:03.412Z,23.10
2019-06-15T08:27:30.898Z,23.10
2019-06-15T08:29:58.371Z,23.10
2019-06-15T08:32:25.873Z,23.10
2019-06-15T08:34:53.359Z,23.10
2019-06-15T08:37:20.835Z,23.10
2019-06-15T08:39:48.314Z,23.10
2019-06-15T08:42:15.778Z,23.10
2019-06-15T08:44:43.257Z,23.10
2019-06-15T08:47:10.730Z,23.20
2019-06-15T08:49:38.237Z,23.20
2019-06-15T08:52:05.705Z,23.20
2019-06-15T08:54:33.213Z,23.20
2019-06-15T08:57:00.740Z,23.20
2019-06-15T08:59:28.209Z,23.20
2019-06-15T09:01:55.686Z,23.20
2019-06-15T09:04:23.154Z,23.20
2019-06-15T09:06:50.764Z,23.20
2019-06-15T09:09:18.265Z,23.20
2019-06-15T09:11:46.002Z,23.20
2019-06-15T09:14:13.511Z,23.20
2019-06-15T09:16:41.061Z,23.30
2019-06-15T09:19:08.549Z,23.30
2019-06-15T09:21:36.273Z,23.20
2019-06-15T09:24:03.820Z,23.20
2019-06-15T09:26:31.285Z,23.20
2019-06-15T09:29:10.725Z,23.30
2019-06-15T09:31:27.990Z,23.30
2019-06-15T09:33:55.463Z,23.30
2019-06-15T09:36:22.930Z,23.30
2019-06-15T09:38:50.398Z,23.20
2019-06-15T09:41:17.916Z,23.30
2019-06-15T09:43:45.482Z,23.30
2019-06-15T09:46:13.059Z,23.40
2019-06-15T09:48:40.707Z,23.30
2019-06-15T09:51:08.190Z,23.30
2019-06-15T09:53:35.752Z,23.30
2019-06-15T09:56:03.242Z,23.40
2019-06-15T09:58:30.695Z,23.30
2019-06-15T10:00:58.167Z,23.30
2019-06-15T10:03:25.643Z,23.30
2019-06-15T10:05:53.115Z,23.30
2019-06-15T10:08:20.590Z,23.30
2019-06-15T10:10:48.074Z,23.30
2019-06-15T10:13:15.554Z,23.30
2019-06-15T10:15:43.040Z,23.30
2019-06-15T10:18:10.515Z,23.30
2019-06-15T10:20:38.126Z,23.30
2019-06-15T10:23:07.015Z,23.30
2019-06-15T10:25:34.538Z,23.30
2019-06-15T10:28:02.022Z,23.40
2019-06-15T10:30:29.510Z,23.40
2019-06-15T10:32:56.985Z,23.40
2019-06-15T10:35:24.728Z,23.40
2019-06-15T10:37:52.198Z,23.40
2019-06-15T10:40:19.679Z,23.40
2019-06-15T10:42:47.156Z,23.30
2019-06-15T10:45:14.632Z,23.40
2019-06-15T10:47:42.101Z,23.40
2019-06-15T10:50:09.605Z,23.40
2019-06-15T10:52:37.065Z,23.40
2019-06-15T10:55:06.172Z,23.40
2019-06-15T10:57:33.646Z,23.30
2019-06-15T11:00:01.124Z,23.40
2019-06-15T11:02:28.604Z,23.40
2019-06-15T11:04:56.071Z,23.40
2019-06-15T11:07:23.556Z,23.30
2019-06-15T11:09:51.025Z,23.30
2019-06-15T11:12:18.505Z,23.40
2019-06-15T11:14:45.975Z,23.30
2019-06-15T11:17:13.465Z,23.30
2019-06-15T11:19:40.993Z,23.30
2019-06-15T11:22:08.463Z,23.40
2019-06-15T11:24:35.926Z,23.30
2019-06-15T11:27:03.398Z,23.30
2019-06-15T11:29:30.860Z,23.30
2019-06-15T11:31:58.337Z,23.40
2019-06-15T11:34:25.823Z,23.30
2019-06-15T11:36:53.628Z,23.30
2019-06-15T11:39:21.089Z,23.30
2019-06-15T11:41:48.563Z,23.40
2019-06-15T11:44:16.031Z,23.30
2019-06-15T11:46:43.515Z,23.30
2019-06-15T11:49:10.983Z,23.30
2019-06-15T11:51:38.456Z,23.40
2019-06-15T11:54:05.921Z,23.30
2019-06-15T11:56:33.391Z,23.30
2019-06-15T11:59:00.863Z,23.30
2019-06-15T12:01:28.424Z,23.30
2019-06-15T12:03:55.958Z,23.30
2019-06-15T12:06:23.451Z,23.40
2019-06-15T12:08:50.958Z,23.30
2019-06-15T12:11:18.498Z,23.30
2019-06-15T12:13:45.966Z,23.40
2019-06-15T12:16:13.491Z,23.30
2019-06-15T12:18:40.995Z,23.30
2019-06-15T12:21:08.476Z,23.40
2019-06-15T12:23:35.947Z,23.40
2019-06-15T12:26:03.428Z,23.40
2019-06-15T12:28:30.892Z,23.30
2019-06-15T12:30:58.362Z,23.30
2019-06-15T12:33:25.934Z,23.30
2019-06-15T12:35:53.398Z,23.40
2019-06-15T12:38:20.872Z,23.30
2019-06-15T12:40:48.340Z,23.30
2019-06-15T12:43:15.969Z,23.30
2019-06-15T12:45:43.434Z,23.40
2019-06-15T12:48:11.084Z,23.30
2019-06-15T12:50:38.660Z,23.40
2019-06-15T12:53:06.131Z,23.30
2019-06-15T12:55:33.615Z,23.40
2019-06-15T12:58:01.087Z,23.30
2019-06-15T13:00:30.178Z,23.30
2019-06-15T13:02:57.655Z,23.40
2019-06-15T13:05:25.123Z,23.30
2019-06-15T13:07:52.594Z,23.30
2019-06-15T13:10:20.060Z,23.30
2019-06-15T13:12:47.527Z,23.40
2019-06-15T13:15:15.076Z,23.30
2019-06-15T13:17:42.614Z,23.30
2019-06-15T13:20:10.104Z,23.40
2019-06-15T13:22:37.638Z,23.40
2019-06-15T13:25:06.171Z,23.30
2019-06-15T13:27:33.646Z,23.30
2019-06-15T13:30:01.122Z,23.30
2019-06-15T13:32:28.597Z,23.30
2019-06-15T13:34:56.306Z,23.40
2019-06-15T13:37:23.794Z,23.40
2019-06-15T13:39:51.269Z,23.30
2019-06-15T13:42:18.804Z,23.30
2019-06-15T13:44:46.270Z,23.40
2019-06-15T13:47:13.748Z,23.30
2019-06-15T13:49:41.217Z,23.40
2019-06-15T13:52:08.702Z,23.30
2019-06-15T13:54:36.152Z,23.30
2019-06-15T13:57:03.636Z,23.40
2019-06-15T13:59:31.100Z,23.30
2019-06-15T14:01:58.647Z,23.30
2019-06-15T14:04:26.119Z,23.40
2019-06-15T14:06:53.585Z,23.40
2019-06-15T14:09:21.049Z,23.30
2019-06-15T14:11:48.763Z,23.40
2019-06-15T14:14:16.313Z,23.40
2019-06-15T14:16:43.837Z,23.30
2019-06-15T14:19:11.323Z,23.30
2019-06-15T14:21:38.813Z,23.30
2019-06-15T14:24:06.279Z,23.30
2019-06-15T14:26:33.771Z,23.40
2019-06-15T14:29:01.299Z,23.30
2019-06-15T14:31:28.805Z,23.40
2019-06-15T14:33:56.278Z,23.40
2019-06-15T14:36:23.764Z,23.30
2019-06-15T14:38:51.232Z,23.40
2019-06-15T14:41:18.773Z,23.40
2019-06-15T14:43:46.242Z,23.40
2019-06-15T14:46:13.732Z,23.40
2019-06-15T14:48:41.282Z,23.40
2019-06-15T14:51:08.759Z,23.40
2019-06-15T14:53:38.801Z,23.40
2019-06-15T14:56:06.784Z,23.40
2019-06-15T14:58:36.447Z,23.40
2019-06-15T15:01:06.291Z,23.40
2019-06-15T15:03:32.766Z,23.40
2019-06-15T15:06:00.226Z,23.40
2019-06-15T15:08:27.712Z,23.50
2019-06-15T15:10:56.325Z,23.40
2019-06-15T15:13:26.223Z,23.50
2019-06-15T15:15:53.302Z,23.40
2019-06-15T15:18:20.774Z,23.50
2019-06-15T15:20:48.245Z,23.50
2019-06-15T15:23:15.770Z,23.50
2019-06-15T15:25:43.274Z,23.50
2019-06-15T15:28:10.822Z,23.50
2019-06-15T15:30:40.973Z,23.50
2019-06-15T15:33:08.515Z,23.50
2019-06-15T15:35:37.229Z,23.50
2019-06-15T15:38:06.179Z,23.50
2019-06-15T15:40:36.334Z,23.50
2019-06-15T15:43:03.083Z,23.60
2019-06-15T15:45:30.578Z,23.50
2019-06-15T15:47:58.092Z,23.50
2019-06-15T15:50:26.285Z,23.50
2019-06-15T15:52:53.903Z,23.50
2019-06-15T15:55:21.374Z,23.50
2019-06-15T15:57:48.845Z,23.60
2019-06-15T16:00:29.910Z,23.60
2019-06-15T16:03:07.361Z,23.60
2019-06-15T16:05:37.079Z,23.60
2019-06-15T16:08:06.609Z,23.60
2019-06-15T16:10:33.815Z,23.60
2019-06-15T16:13:01.299Z,23.60
2019-06-15T16:15:28.827Z,23.60
2019-06-15T16:17:56.424Z,23.60
2019-06-15T16:20:26.178Z,23.60
2019-06-15T16:22:53.126Z,23.60
2019-06-15T16:25:20.593Z,23.60
2019-06-15T16:27:48.061Z,23.60
2019-06-15T16:30:17.166Z,23.60
2019-06-15T16:32:59.965Z,23.60
2019-06-15T16:35:16.486Z,23.60
2019-06-15T16:37:43.038Z,23.70
2019-06-15T16:40:10.567Z,23.70
2019-06-15T16:42:38.021Z,23.60
2019-06-15T16:45:06.851Z,23.70
2019-06-15T16:47:36.390Z,23.70
2019-06-15T16:50:06.877Z,23.60
2019-06-15T16:52:36.392Z,23.60
2019-06-15T16:55:06.446Z,23.60
2019-06-15T16:57:33.200Z,23.70
2019-06-15T17:00:00.735Z,23.60
2019-06-15T17:02:28.249Z,23.60
2019-06-15T17:04:56.963Z,23.60
2019-06-15T17:07:26.257Z,23.60
2019-06-15T17:09:53.830Z,23.60
2019-06-15T17:12:21.333Z,23.60
2019-06-15T17:14:48.806Z,23.60
2019-06-15T17:17:17.374Z,23.60
2019-06-15T17:19:46.779Z,23.70
2019-06-15T17:22:20.760Z,23.60
2019-06-15T17:24:45.902Z,23.70
2019-06-15T17:27:12.840Z,23.70
2019-06-15T17:29:40.313Z,23.60
2019-06-15T17:32:07.787Z,23.70
2019-06-15T17:34:36.360Z,23.70
2019-06-15T17:37:04.010Z,23.70
2019-06-15T17:39:31.476Z,23.70
2019-06-15T17:41:58.953Z,23.70
2019-06-15T17:44:26.491Z,23.70
2019-06-15T17:46:56.370Z,23.70
2019-06-15T17:49:23.160Z,23.60
2019-06-15T17:51:50.631Z,23.70
2019-06-15T17:54:18.968Z,23.60
2019-06-15T17:56:46.445Z,23.60
2019-06-15T17:59:16.050Z,23.60
2019-06-15T18:01:43.164Z,23.60
2019-06-15T18:04:10.621Z,23.60
2019-06-15T18:06:38.103Z,23.60
2019-06-15T18:09:06.591Z,23.60
2019-06-15T18:11:37.385Z,23.60
2019-06-15T18:14:05.999Z,23.60
2019-06-15T18:16:33.598Z,23.60
2019-06-15T18:19:01.150Z,23.60
2019-06-15T18:21:28.614Z,23.60
2019-06-15T18:23:57.341Z,23.60
2019-06-15T18:26:26.749Z,23.60
2019-06-15T18:28:54.126Z,23.60
2019-06-15T18:31:21.854Z,23.60
2019-06-15T18:33:49.366Z,23.60
2019-06-15T18:36:17.307Z,23.50
2019-06-15T18:38:46.480Z,23.60
2019-06-15T18:41:16.789Z,23.60
2019-06-15T18:43:43.310Z,23.50
2019-06-15T18:46:10.794Z,23.60
2019-06-15T18:48:38.281Z,23.50
2019-06-15T18:51:07.585Z,23.50
2019-06-15T18:53:38.946Z,23.50
2019-06-15T18:56:04.131Z,23.40
2019-06-15T18:58:31.606Z,23.50
2019-06-15T19:00:59.091Z,23.40
2019-06-15T19:03:26.558Z,23.40
2019-06-15T19:05:56.701Z,23.30
2019-06-15T19:08:23.215Z,23.30
2019-06-15T19:10:50.686Z,23.30
2019-06-15T19:13:18.189Z,23.30
2019-06-15T19:15:46.531Z,23.20
2019-06-15T19:18:17.444Z,23.20
2019-06-15T19:20:43.557Z,23.10
2019-06-15T19:23:11.026Z,23.10
2019-06-15T19:25:38.494Z,23.10
2019-06-15T19:28:05.959Z,23.10
2019-06-15T19:30:33.433Z,23.10
2019-06-15T19:33:00.903Z,23.00
2019-06-15T19:35:28.387Z,23.00
2019-06-15T19:37:56.679Z,23.00
2019-06-15T19:40:26.627Z,22.90
2019-06-15T19:42:53.527Z,22.90
2019-06-15T19:45:20.996Z,22.90
2019-06-15T19:47:48.462Z,22.90
2019-06-15T19:50:16.644Z,22.90
2019-06-15T19:52:46.118Z,22.90
2019-06-15T19:55:13.370Z,22.80
2019-06-15T19:57:40.833Z,22.80
2019-06-15T20:00:08.391Z,22.90
2019-06-15T20:02:36.404Z,23.00
2019-06-15T20:05:05.670Z,23.00
2019-06-15T20:07:33.147Z,23.10
2019-06-15T20:10:00.622Z,23.20
2019-06-15T20:12:28.093Z,23.20
2019-06-15T20:14:56.716Z,23.20
2019-06-15T20:17:24.316Z,23.20
2019-06-15T20:19:51.782Z,23.30
2019-06-15T20:22:19.244Z,23.30
2019-06-15T20:24:47.449Z,23.30
2019-06-15T20:27:16.481Z,23.30
2019-06-15T20:29:44.010Z,23.40
2019-06-15T20:32:11.474Z,23.30
2019-06-15T20:34:38.938Z,23.30
2019-06-15T20:37:06.401Z,23.40
2019-06-15T20:39:36.103Z,23.30
2019-06-15T20:42:03.053Z,23.40
2019-06-15T20:44:30.518Z,23.30
2019-06-15T20:46:57.984Z,23.40
2019-06-15T20:49:25.454Z,23.40
2019-06-15T20:51:52.928Z,23.40
2019-06-15T20:54:20.396Z,23.40
2019-06-15T20:56:47.903Z,23.40
2019-06-15T20:59:16.982Z,23.40
2019-06-15T21:01:44.629Z,23.40
2019-06-15T21:04:12.179Z,23.40
2019-06-15T21:06:39.909Z,23.40
2019-06-15T21:09:07.446Z,23.50
2019-06-15T21:11:36.194Z,23.40
2019-06-15T21:14:04.038Z,23.50
2019-06-15T21:16:33.157Z,23.50
2019-06-15T21:19:00.589Z,23.50
2019-06-15T21:21:28.058Z,23.50
2019-06-15T21:23:56.927Z,23.50
2019-06-15T21:26:26.849Z,23.50
2019-06-15T21:28:56.461Z,23.50
2019-06-15T21:31:23.037Z,23.50
2019-06-15T21:33:50.510Z,23.50
2019-06-15T21:36:17.978Z,23.50
2019-06-15T21:38:46.767Z,23.50
2019-06-15T21:41:16.551Z,23.50
2019-06-15T21:43:43.589Z,23.50
2019-06-15T21:46:11.062Z,23.50
2019-06-15T21:48:38.540Z,23.50
2019-06-15T21:51:07.741Z,23.50
2019-06-15T21:53:36.180Z,23.50
2019-06-15T21:56:06.869Z,23.50
2019-06-15T21:58:33.359Z,23.50
2019-06-15T22:01:06.295Z,23.50
2019-06-15T22:03:33.846Z,23.50
2019-06-15T22:06:03.310Z,23.50
2019-06-15T22:08:30.502Z,23.50
2019-06-15T22:10:57.974Z,23.50
2019-06-15T22:13:26.540Z,23.60
2019-06-15T22:15:56.104Z,23.50
2019-06-15T22:18:23.291Z,23.50
2019-06-15T22:20:50.769Z,23.60
2019-06-15T22:23:18.240Z,23.50
2019-06-15T22:25:46.467Z,23.60
2019-06-15T22:28:16.227Z,23.50
2019-06-15T22:30:43.237Z,23.50
2019-06-15T22:33:10.713Z,23.60
2019-06-15T22:35:38.176Z,23.50
2019-06-15T22:38:07.249Z,23.50
2019-06-15T22:40:36.307Z,23.60
2019-06-15T22:43:03.934Z,23.60
2019-06-15T22:45:31.403Z,23.60
2019-06-15T22:47:58.869Z,23.60
